Time;durP1;ratioP1;P1;durP2;ratioP2;P2;SDS_P1;SDS_P2;PMS_P1;PMS_P2;Temp;Humidity;BMP_temperature;BMP_pressure;BME280_temperature;BME280_humidity;BME280_pressure;Samples;Min_cycle;Max_cycle;Signal;HPM_P1;HPM_P2
2022/12/15 00:38:55;;;;;;;0.30;0.30;;;;;;;;;;7376888;19;20612;-61
2022/12/15 00:41:21;;;;;;;0.20;0.20;;;;;;;;;;7357461;19;20117;-61
2022/12/15 00:43:46;;;;;;;0.30;0.30;;;;;;;;;;7368778;19;20149;-61
2022/12/15 00:48:55;;;;;;;0.30;0.30;;;;;;;;;;7362200;19;20692;-61
2022/12/15 00:51:21;;;;;;;0.20;0.20;;;;;;;;;;7374201;19;20121;-61
2022/12/15 01:21:09;;;;;;;0.30;0.30;;;;;;;;;;7370766;19;20903;-63
2022/12/15 01:23:34;;;;;;;0.23;0.23;;;;;;;;;;7376491;19;20141;-63
2022/12/15 01:26:00;;;;;;;0.20;0.20;;;;;;;;;;7375000;19;20124;-63
2022/12/15 01:28:25;;;;;;;0.30;0.30;;;;;;;;;;7380347;19;20522;-63
2022/12/15 01:30:51;;;;;;;0.30;0.30;;;;;;;;;;7383479;19;20124;-63
2022/12/15 01:33:18;;;;;;;0.30;0.30;;;;;;;;;;7363333;19;20499;-63
2022/12/15 01:35:43;;;;;;;0.20;0.20;;;;;;;;;;7369088;19;20786;-63
2022/12/15 01:38:08;;;;;;;0.20;0.20;;;;;;;;;;7369455;19;20147;-63
2022/12/15 01:40:52;;;;;;;0.30;0.30;;;;;;;;;;7372816;19;20578;-63
2022/12/15 01:43:21;;;;;;;0.30;0.30;;;;;;;;;;7364292;19;21034;-63
2022/12/15 01:45:52;;;;;;;0.20;0.20;;;;;;;;;;7377568;19;20140;-63
2022/12/15 01:48:47;;;;;;;0.30;0.30;;;;;;;;;;7373370;19;20145;-63
2022/12/15 01:51:15;;;;;;;0.20;0.20;;;;;;;;;;7373823;19;20149;-63
2022/12/15 01:53:54;;;;;;;0.30;0.30;;;;;;;;;;7368919;19;20145;-63
2022/12/15 01:56:22;;;;;;;0.20;0.20;;;;;;;;;;7377878;19;20163;-63
2022/12/15 01:58:50;;;;;;;0.30;0.30;;;;;;;;;;7378000;19;20121;-63
2022/12/15 02:01:15;;;;;;;0.20;0.20;;;;;;;;;;7366292;19;20200;-63
2022/12/15 02:03:42;;;;;;;0.30;0.30;;;;;;;;;;7366304;19;20158;-63
2022/12/15 02:06:08;;;;;;;0.30;0.30;;;;;;;;;;7374607;19;20508;-63
2022/12/15 02:08:35;;;;;;;0.30;0.30;;;;;;;;;;7387931;19;20138;-63
2022/12/15 02:11:37;;;;;;;0.20;0.20;;;;;;;;;;7369607;19;20188;-63
2022/12/15 02:14:04;;;;;;;0.20;0.20;;;;;;;;;;7376779;19;20471;-63
2022/12/15 02:16:47;;;;;;;0.30;0.30;;;;;;;;;;7373966;19;20125;-63
2022/12/15 02:19:43;;;;;;;0.30;0.30;;;;;;;;;;7377085;19;20140;-63
2022/12/15 02:22:22;;;;;;;0.20;0.20;;;;;;;;;;7368995;19;20173;-64
2022/12/15 02:25:15;;;;;;;0.20;0.20;;;;;;;;;;7374437;19;20680;-63
2022/12/15 02:27:43;;;;;;;0.20;0.20;;;;;;;;;;7376555;19;20125;-63
2022/12/15 02:30:14;;;;;;;0.23;0.23;;;;;;;;;;7373619;19;20125;-63
2022/12/15 02:33:02;;;;;;;0.30;0.30;;;;;;;;;;7378206;19;20242;-63
2022/12/15 02:35:47;;;;;;;0.23;0.23;;;;;;;;;;7368748;19;20499;-63
2022/12/15 02:38:12;;;;;;;0.30;0.30;;;;;;;;;;7373770;19;20128;-63
2022/12/15 02:40:38;;;;;;;0.90;0.90;;;;;;;;;;7368049;19;20592;-63
2022/12/15 02:43:05;;;;;;;0.30;0.30;;;;;;;;;;7370459;19;20641;-64
2022/12/15 02:45:44;;;;;;;0.30;0.30;;;;;;;;;;7373036;19;20113;-61
2022/12/15 02:48:16;;;;;;;0.20;0.20;;;;;;;;;;7379893;19;20121;-62
2022/12/15 02:51:18;;;;;;;0.30;0.30;;;;;;;;;;7373381;19;20113;-62
2022/12/15 02:53:59;;;;;;;0.30;0.30;;;;;;;;;;7371513;19;20689;-62
2022/12/15 02:56:50;;;;;;;0.20;0.20;;;;;;;;;;7379876;19;20128;-62
2022/12/15 02:59:24;;;;;;;0.20;0.20;;;;;;;;;;7370974;19;20208;-62
2022/12/15 03:01:57;;;;;;;0.20;0.20;;;;;;;;;;7371855;19;20546;-62
2022/12/15 03:04:24;;;;;;;0.20;0.20;;;;;;;;;;7379815;19;20139;-62
2022/12/15 03:06:55;;;;;;;0.30;0.27;;;;;;;;;;7369280;19;20124;-62
2022/12/15 03:09:20;;;;;;;0.20;0.20;;;;;;;;;;7377389;19;20613;-62
2022/12/15 03:11:45;;;;;;;0.20;0.20;;;;;;;;;;7375110;19;20121;-62
2022/12/15 03:14:11;;;;;;;0.40;0.40;;;;;;;;;;7369269;19;20125;-62
2022/12/15 03:16:36;;;;;;;0.20;0.20;;;;;;;;;;7367889;19;20117;-62
2022/12/15 03:19:01;;;;;;;0.20;0.20;;;;;;;;;;7375056;19;20121;-62
2022/12/15 03:21:26;;;;;;;0.27;0.27;;;;;;;;;;7372639;19;20187;-62
2022/12/15 03:23:52;;;;;;;0.30;0.30;;;;;;;;;;7369148;19;20167;-62
2022/12/15 03:26:17;;;;;;;0.20;0.20;;;;;;;;;;7369987;19;20117;-62
2022/12/15 03:28:42;;;;;;;0.30;0.30;;;;;;;;;;7367433;19;20120;-62
2022/12/15 03:31:08;;;;;;;0.20;0.20;;;;;;;;;;7376205;19;20502;-62
2022/12/15 03:33:33;;;;;;;0.30;0.30;;;;;;;;;;7371269;19;20145;-62
2022/12/15 03:35:58;;;;;;;0.30;0.30;;;;;;;;;;7367438;19;20132;-62
2022/12/15 03:38:24;;;;;;;0.73;0.70;;;;;;;;;;7378920;19;20128;-62
2022/12/15 03:40:49;;;;;;;0.50;0.50;;;;;;;;;;7373352;19;20123;-62
2022/12/15 03:43:15;;;;;;;0.30;0.30;;;;;;;;;;7375794;19;20510;-62
2022/12/15 03:45:40;;;;;;;0.30;0.30;;;;;;;;;;7376940;19;20146;-62
2022/12/15 03:48:05;;;;;;;0.20;0.20;;;;;;;;;;7375872;19;21357;-62
2022/12/15 03:50:30;;;;;;;0.30;0.30;;;;;;;;;;7359445;19;21189;-62
2022/12/15 03:52:58;;;;;;;0.27;0.27;;;;;;;;;;7373811;19;20154;-62
2022/12/15 03:55:24;;;;;;;0.20;0.20;;;;;;;;;;7364256;19;20128;-62
2022/12/15 03:57:50;;;;;;;0.20;0.20;;;;;;;;;;7366521;19;20121;-62
2022/12/15 04:00:17;;;;;;;0.97;0.97;;;;;;;;;;7363554;19;20120;-62
2022/12/15 04:02:43;;;;;;;0.20;0.20;;;;;;;;;;7372456;19;20149;-62
2022/12/15 04:05:26;;;;;;;0.20;0.20;;;;;;;;;;7373598;19;20136;-61
2022/12/15 04:07:52;;;;;;;0.30;0.30;;;;;;;;;;7373524;19;20113;-62
2022/12/15 04:10:18;;;;;;;0.30;0.30;;;;;;;;;;7367387;19;20181;-62
2022/12/15 04:12:43;;;;;;;0.30;0.30;;;;;;;;;;7370012;19;20169;-62
2022/12/15 04:15:10;;;;;;;0.40;0.40;;;;;;;;;;7371387;19;20128;-62
2022/12/15 04:17:35;;;;;;;0.23;0.23;;;;;;;;;;7376385;19;20128;-62
2022/12/15 04:20:10;;;;;;;0.20;0.20;;;;;;;;;;7377773;19;20125;-62
2022/12/15 04:22:42;;;;;;;0.20;0.20;;;;;;;;;;7361774;19;20250;-61
2022/12/15 05:33:39;;;;;;;0.20;0.20;;;;;;;;;;7373411;19;20171;-62
2022/12/15 05:36:05;;;;;;;0.20;0.20;;;;;;;;;;7363847;19;20116;-62
2022/12/15 05:38:30;;;;;;;0.30;0.30;;;;;;;;;;7374502;19;20525;-62
2022/12/15 05:40:57;;;;;;;0.20;0.20;;;;;;;;;;7370290;19;20148;-62
2022/12/15 05:43:22;;;;;;;0.20;0.20;;;;;;;;;;7362704;19;20187;-62
2022/12/15 05:45:47;;;;;;;0.30;0.30;;;;;;;;;;7375979;19;20121;-62
2022/12/15 05:48:13;;;;;;;0.20;0.20;;;;;;;;;;7375177;19;20605;-62
2022/12/15 05:50:38;;;;;;;0.20;0.20;;;;;;;;;;7374028;19;20408;-62
2022/12/15 05:53:04;;;;;;;0.20;0.20;;;;;;;;;;7373898;19;20553;-62
2022/12/15 05:55:29;;;;;;;0.20;0.20;;;;;;;;;;7376170;19;20155;-62
2022/12/15 05:57:54;;;;;;;0.20;0.20;;;;;;;;;;7380065;19;20125;-62
2022/12/15 06:00:20;;;;;;;0.20;0.20;;;;;;;;;;7377287;19;20125;-62
2022/12/15 06:02:45;;;;;;;0.30;0.30;;;;;;;;;;7380381;19;20492;-62
2022/12/15 06:05:10;;;;;;;0.20;0.20;;;;;;;;;;7380829;19;20464;-62
2022/12/15 06:07:36;;;;;;;0.20;0.20;;;;;;;;;;7380036;19;20124;-62
2022/12/15 06:10:02;;;;;;;0.30;0.30;;;;;;;;;;7378644;19;20126;-62
2022/12/15 06:12:27;;;;;;;0.20;0.20;;;;;;;;;;7376864;19;20519;-62
2022/12/15 06:14:53;;;;;;;0.20;0.20;;;;;;;;;;7382918;19;20147;-62
2022/12/15 06:17:18;;;;;;;0.20;0.20;;;;;;;;;;7380561;19;20459;-62
2022/12/15 06:19:43;;;;;;;0.30;0.30;;;;;;;;;;7380697;19;20130;-62
2022/12/15 06:22:09;;;;;;;1.07;1.07;;;;;;;;;;7382593;19;20148;-62
2022/12/15 06:24:34;;;;;;;0.20;0.20;;;;;;;;;;7386967;19;20145;-62
2022/12/15 06:27:00;;;;;;;0.40;0.40;;;;;;;;;;7382244;19;20534;-62
2022/12/15 06:29:25;;;;;;;0.20;0.20;;;;;;;;;;7389381;19;20121;-62
2022/12/15 06:31:50;;;;;;;0.30;0.30;;;;;;;;;;7380554;19;20561;-62
2022/12/15 06:34:16;;;;;;;0.40;0.40;;;;;;;;;;7377146;19;20136;-62
2022/12/15 06:36:41;;;;;;;0.40;0.40;;;;;;;;;;7381145;19;20136;-62
2022/12/15 06:39:10;;;;;;;0.20;0.20;;;;;;;;;;7383236;19;20662;-62
2022/12/15 06:41:36;;;;;;;0.20;0.20;;;;;;;;;;7367275;19;20121;-62
2022/12/15 06:44:01;;;;;;;0.20;0.20;;;;;;;;;;7384210;19;20575;-62
2022/12/15 06:49:00;;;;;;;0.30;0.30;;;;;;;;;;7369235;19;20483;-62
2022/12/15 18:49:23;;;;;;;1.03;1.03;;;;;;;;;;7391740;19;20192;-63
2022/12/15 18:51:49;;;;;;;2.57;1.03;;;;;;;;;;7380856;19;20132;-62
2022/12/15 18:54:17;;;;;;;1.30;1.20;;;;;;;;;;7396025;19;20128;-62
2022/12/15 18:56:42;;;;;;;0.93;0.90;;;;;;;;;;7388599;19;20149;-62
2022/12/15 18:59:14;;;;;;;2.97;1.57;;;;;;;;;;7388017;19;20125;-63
2022/12/15 19:01:40;;;;;;;1.47;1.37;;;;;;;;;;7391245;19;20125;-63
2022/12/15 19:04:05;;;;;;;1.53;1.43;;;;;;;;;;7394084;19;20185;-63
2022/12/15 19:06:39;;;;;;;1.30;1.03;;;;;;;;;;7391845;19;20125;-63
2022/12/15 19:09:20;;;;;;;0.80;0.80;;;;;;;;;;7390816;19;20135;-63
2022/12/15 19:14:40;;;;;;;0.80;0.80;;;;;;;;;;7393218;19;20151;-63
2022/12/15 19:22:52;;;;;;;1.60;1.50;;;;;;;;;;7369886;19;20175;-63
2022/12/15 19:25:22;;;;;;;1.23;1.13;;;;;;;;;;7381258;19;20129;-63
2022/12/15 19:27:47;;;;;;;0.90;0.90;;;;;;;;;;7383982;19;20128;-63
2022/12/15 19:30:15;;;;;;;0.97;0.97;;;;;;;;;;7369887;19;20125;-63
2022/12/15 19:32:40;;;;;;;1.30;1.07;;;;;;;;;;7382795;19;20176;-63
2022/12/15 19:35:06;;;;;;;2.27;2.07;;;;;;;;;;7365517;19;20124;-63
2022/12/15 19:37:33;;;;;;;2.53;1.40;;;;;;;;;;7351715;19;20728;-63
2022/12/15 19:40:00;;;;;;;1.27;1.23;;;;;;;;;;7357512;19;20128;-63
2022/12/15 19:42:34;;;;;;;1.70;1.60;;;;;;;;;;7363928;19;20629;-63
2022/12/15 19:45:00;;;;;;;1.57;1.47;;;;;;;;;;7360122;19;20132;-63
2022/12/15 19:47:26;;;;;;;3.50;1.63;;;;;;;;;;7362023;19;20204;-63
2022/12/15 19:49:51;;;;;;;1.60;1.50;;;;;;;;;;7373749;19;20165;-63
2022/12/15 19:52:18;;;;;;;1.83;1.53;;;;;;;;;;7377216;19;20758;-63
2022/12/15 19:54:45;;;;;;;0.77;0.77;;;;;;;;;;7380447;19;20128;-63
2022/12/15 19:57:12;;;;;;;0.80;0.80;;;;;;;;;;7378754;19;20506;-63
2022/12/15 19:59:37;;;;;;;1.00;1.00;;;;;;;;;;7374505;19;20121;-63
2022/12/15 20:02:03;;;;;;;1.63;1.53;;;;;;;;;;7384081;19;20504;-63
2022/12/15 20:04:28;;;;;;;0.87;0.87;;;;;;;;;;7375805;19;20506;-63
2022/12/15 20:06:53;;;;;;;1.00;0.87;;;;;;;;;;7380529;19;20129;-63
2022/12/15 20:09:19;;;;;;;1.90;1.07;;;;;;;;;;7387832;19;20135;-64
2022/12/15 20:11:44;;;;;;;1.60;1.50;;;;;;;;;;7372722;19;20149;-64
2022/12/15 20:14:11;;;;;;;1.57;1.47;;;;;;;;;;7378244;19;20128;-63
2022/12/15 20:16:36;;;;;;;0.57;0.57;;;;;;;;;;7379112;19;20137;-64
2022/12/15 20:19:02;;;;;;;0.90;0.90;;;;;;;;;;7371212;19;20120;-63
2022/12/15 20:21:30;;;;;;;0.77;0.63;;;;;;;;;;7357631;19;20151;-63
2022/12/15 20:23:59;;;;;;;0.83;0.83;;;;;;;;;;7373649;19;20153;-61
2022/12/15 20:26:24;;;;;;;1.30;1.20;;;;;;;;;;7385998;19;20601;-62
2022/12/15 20:28:51;;;;;;;2.33;1.23;;;;;;;;;;7384652;19;20125;-62
2022/12/15 20:31:19;;;;;;;1.50;0.83;;;;;;;;;;7379132;19;20212;-62
2022/12/15 20:33:46;;;;;;;0.93;0.93;;;;;;;;;;7376960;19;20170;-62
2022/12/15 20:36:19;;;;;;;0.70;0.70;;;;;;;;;;7375984;19;20133;-64
2022/12/15 20:38:45;;;;;;;1.30;1.27;;;;;;;;;;7376329;19;20141;-64
2022/12/15 20:41:25;;;;;;;2.20;1.30;;;;;;;;;;7383442;19;20125;-63
2022/12/15 20:43:56;;;;;;;0.90;0.90;;;;;;;;;;7375456;19;20188;-62
2022/12/15 20:46:25;;;;;;;1.93;1.10;;;;;;;;;;7376212;19;20129;-63
2022/12/15 20:48:52;;;;;;;1.10;1.00;;;;;;;;;;7382707;19;20157;-63
2022/12/15 20:51:22;;;;;;;1.17;0.83;;;;;;;;;;7385276;19;20144;-62
2022/12/15 20:53:48;;;;;;;0.53;0.53;;;;;;;;;;7373123;19;20505;-63
2022/12/15 20:56:13;;;;;;;0.73;0.73;;;;;;;;;;7375481;19;20156;-63
2022/12/15 20:58:39;;;;;;;1.80;1.27;;;;;;;;;;7374819;19;20488;-63
2022/12/15 21:01:31;;;;;;;1.80;1.57;;;;;;;;;;7375941;19;20142;-62
2022/12/15 21:03:57;;;;;;;2.23;1.80;;;;;;;;;;7367819;19;20149;-62
2022/12/15 21:06:24;;;;;;;2.33;1.23;;;;;;;;;;7355636;19;20196;-62
2022/12/15 21:08:50;;;;;;;1.27;1.20;;;;;;;;;;7376610;19;20632;-63
2022/12/15 21:11:15;;;;;;;1.43;1.33;;;;;;;;;;7367372;19;20129;-63
2022/12/15 21:13:41;;;;;;;3.03;1.40;;;;;;;;;;7376827;19;20152;-63
2022/12/15 21:16:13;;;;;;;2.03;0.83;;;;;;;;;;7381340;19;20215;-62
2022/12/15 21:18:38;;;;;;;0.70;0.70;;;;;;;;;;7385607;19;20141;-63
2022/12/15 21:21:08;;;;;;;0.97;0.97;;;;;;;;;;7386879;19;20196;-63
2022/12/15 21:23:33;;;;;;;0.93;0.93;;;;;;;;;;7375574;19;20164;-63
2022/12/15 21:26:00;;;;;;;1.57;1.33;;;;;;;;;;7381453;19;20153;-63
2022/12/15 21:28:25;;;;;;;1.77;1.07;;;;;;;;;;7375930;19;20153;-62
2022/12/15 21:30:51;;;;;;;1.23;1.13;;;;;;;;;;7380303;19;20129;-62
2022/12/15 21:33:16;;;;;;;1.47;1.07;;;;;;;;;;7379307;19;20149;-63
2022/12/15 21:35:44;;;;;;;1.83;1.57;;;;;;;;;;7380126;19;20774;-62
2022/12/15 21:38:26;;;;;;;0.83;0.83;;;;;;;;;;7384234;19;20482;-63
2022/12/15 21:40:52;;;;;;;1.30;1.20;;;;;;;;;;7378219;19;20243;-63
2022/12/15 21:43:19;;;;;;;0.60;0.60;;;;;;;;;;7376118;19;20681;-63
2022/12/15 21:45:44;;;;;;;1.10;1.07;;;;;;;;;;7375749;19;20129;-62
2022/12/15 21:50:54;;;;;;;1.13;1.07;;;;;;;;;;7382051;19;20505;-62
2022/12/15 21:53:19;;;;;;;1.17;0.87;;;;;;;;;;7382240;19;20149;-63
2022/12/15 21:55:45;;;;;;;2.80;1.10;;;;;;;;;;7385532;19;20116;-63
2022/12/15 21:58:18;;;;;;;1.20;1.17;;;;;;;;;;7386418;19;20153;-63
2022/12/15 22:00:43;;;;;;;1.73;0.97;;;;;;;;;;7392576;19;20752;-63
2022/12/15 22:03:09;;;;;;;0.67;0.67;;;;;;;;;;7383937;19;20175;-63
2022/12/15 22:05:34;;;;;;;1.20;0.97;;;;;;;;;;7391817;19;20117;-63
2022/12/15 22:08:11;;;;;;;1.17;1.07;;;;;;;;;;7392476;19;20117;-63
2022/12/15 22:10:37;;;;;;;1.50;0.93;;;;;;;;;;7392280;19;20129;-63
2022/12/15 22:13:02;;;;;;;0.90;0.90;;;;;;;;;;7374112;19;20159;-62
2022/12/15 22:15:28;;;;;;;0.50;0.50;;;;;;;;;;7393386;19;20474;-62
2022/12/15 22:17:53;;;;;;;1.77;0.87;;;;;;;;;;7386611;19;20123;-62
2022/12/15 22:20:21;;;;;;;1.60;1.27;;;;;;;;;;7389467;19;20133;-62
2022/12/15 22:22:47;;;;;;;1.43;1.33;;;;;;;;;;7389552;19;20157;-63
2022/12/15 22:25:17;;;;;;;0.90;0.90;;;;;;;;;;7389165;19;20125;-62
2022/12/15 22:27:43;;;;;;;5.50;1.43;;;;;;;;;;7390885;19;20129;-63
2022/12/15 22:30:18;;;;;;;0.90;0.90;;;;;;;;;;7387585;19;20193;-63
2022/12/15 22:32:44;;;;;;;2.27;1.07;;;;;;;;;;7382425;19;20151;-63
2022/12/15 22:35:22;;;;;;;0.40;0.40;;;;;;;;;;7385191;19;20223;-63
2022/12/15 22:37:54;;;;;;;1.23;0.70;;;;;;;;;;7392395;19;20192;-63
2022/12/15 22:40:20;;;;;;;1.47;1.37;;;;;;;;;;7379199;19;20211;-63
2022/12/15 22:42:50;;;;;;;0.97;0.97;;;;;;;;;;7380232;19;20167;-63
2022/12/15 22:45:18;;;;;;;0.47;0.47;;;;;;;;;;7384774;19;20125;-63
2022/12/15 22:47:45;;;;;;;0.87;0.70;;;;;;;;;;7391681;19;20128;-63
2022/12/15 22:50:20;;;;;;;1.03;0.93;;;;;;;;;;7390042;19;20535;-63
2022/12/15 22:52:46;;;;;;;0.77;0.77;;;;;;;;;;7386370;19;20148;-62
2022/12/15 22:55:16;;;;;;;0.93;0.93;;;;;;;;;;7390208;19;20125;-63
2022/12/15 22:57:49;;;;;;;0.80;0.80;;;;;;;;;;7380675;19;20605;-63
2022/12/15 23:00:15;;;;;;;1.17;0.93;;;;;;;;;;7382113;19;20149;-63
2022/12/15 23:02:43;;;;;;;0.80;0.80;;;;;;;;;;7364759;19;20160;-63
2022/12/15 23:05:11;;;;;;;1.53;1.43;;;;;;;;;;7374092;19;20133;-63
2022/12/15 23:07:36;;;;;;;0.40;0.37;;;;;;;;;;7368012;19;20165;-63
2022/12/15 23:12:47;;;;;;;0.73;0.73;;;;;;;;;;7376817;19;20160;-63
2022/12/15 23:17:56;;;;;;;1.00;0.97;;;;;;;;;;7382804;19;20161;-63
2022/12/15 23:20:21;;;;;;;0.77;0.77;;;;;;;;;;7390280;19;20136;-63
2022/12/15 23:22:47;;;;;;;1.40;1.30;;;;;;;;;;7373489;19;20665;-63
2022/12/15 23:25:12;;;;;;;0.60;0.60;;;;;;;;;;7382095;19;20172;-63
2022/12/15 23:27:37;;;;;;;0.87;0.87;;;;;;;;;;7385550;19;20163;-63
2022/12/15 23:30:03;;;;;;;0.70;0.70;;;;;;;;;;7389563;19;20117;-63
2022/12/15 23:32:28;;;;;;;0.47;0.47;;;;;;;;;;7381753;19;20169;-63
2022/12/15 23:34:54;;;;;;;1.10;1.03;;;;;;;;;;7377158;19;20827;-63
2022/12/15 23:37:19;;;;;;;1.27;1.17;;;;;;;;;;7383666;19;20133;-63
2022/12/15 23:39:44;;;;;;;1.97;1.80;;;;;;;;;;7391333;19;20185;-63
2022/12/15 23:42:10;;;;;;;1.50;1.40;;;;;;;;;;7379505;19;20153;-63
2022/12/15 23:44:36;;;;;;;1.50;1.40;;;;;;;;;;7374627;19;20127;-63
2022/12/15 23:47:02;;;;;;;1.73;1.27;;;;;;;;;;7388661;19;20131;-63
2022/12/15 23:49:27;;;;;;;2.57;1.20;;;;;;;;;;7388684;19;20129;-63
2022/12/15 23:51:52;;;;;;;0.93;0.93;;;;;;;;;;7387503;19;20117;-63
2022/12/15 23:54:18;;;;;;;1.23;1.13;;;;;;;;;;7391180;19;20547;-63
2022/12/15 23:56:43;;;;;;;0.87;0.87;;;;;;;;;;7389725;19;20200;-63
2022/12/15 23:59:09;;;;;;;6.13;1.47;;;;;;;;;;7385806;19;20119;-63
